Time;durP1;ratioP1;P1;durP2;ratioP2;P2;SDS_P1;SDS_P2;PMS_P1;PMS_P2;Temp;Humidity;BMP_temperature;BMP_pressure;BME280_temperature;BME280_humidity;BME280_pressure;Samples;Min_cycle;Max_cycle;Signal;HPM_P1;HPM_P2
2022/04/02 00:02:47;;;;;;;2.35;0.80;;;;;;;1.12;65.97;100625.00;6047550;28;20700;-69
2022/04/02 00:05:42;;;;;;;3.78;1.38;;;;;;;1.06;65.98;100622.72;6048546;28;20037;-69
2022/04/02 00:08:37;;;;;;;3.53;1.50;;;;;;;1.06;65.61;100625.34;6046981;28;20358;-69
2022/04/02 00:11:33;;;;;;;2.50;1.40;;;;;;;1.06;66.34;100622.72;6047203;28;20525;-69
2022/04/02 00:14:29;;;;;;;5.03;1.30;;;;;;;1.05;65.25;100623.69;6048043;28;20444;-69
2022/04/02 00:17:24;;;;;;;1.50;0.80;;;;;;;1.04;65.65;100628.97;6048557;28;20022;-70
2022/04/02 00:20:20;;;;;;;4.87;1.43;;;;;;;1.02;65.66;100623.84;6047414;28;20523;-69
2022/04/02 00:23:36;;;;;;;4.43;1.10;;;;;;;0.99;65.66;100621.41;6048378;28;20356;-68
2022/04/02 00:26:31;;;;;;;2.67;1.10;;;;;;;0.98;65.02;100627.53;6048641;28;20042;-68
2022/04/02 00:29:27;;;;;;;1.77;0.98;;;;;;;0.90;65.00;100621.91;6047815;28;20073;-69
2022/04/02 00:32:22;;;;;;;2.30;0.90;;;;;;;0.96;65.37;100621.56;6047571;28;20038;-70
2022/04/02 00:35:17;;;;;;;4.97;1.43;;;;;;;0.94;64.92;100618.22;6042434;28;20057;-69
2022/04/02 00:38:13;;;;;;;2.40;0.93;;;;;;;0.91;65.08;100618.41;6047796;28;20116;-68
2022/04/02 00:41:08;;;;;;;2.93;1.23;;;;;;;0.87;65.49;100621.28;6046740;28;20052;-69
2022/04/02 00:44:12;;;;;;;4.03;0.90;;;;;;;0.86;65.60;100619.59;6046700;28;20045;-69
2022/04/02 00:47:08;;;;;;;3.65;0.98;;;;;;;0.83;65.50;100627.59;6047809;28;20539;-70
2022/04/02 00:50:03;;;;;;;1.80;0.90;;;;;;;0.81;64.85;100624.22;6047406;28;20026;-70
2022/04/02 00:53:00;;;;;;;3.88;1.20;;;;;;;0.78;65.61;100622.63;6047204;28;20026;-69
2022/04/02 00:55:55;;;;;;;3.20;0.95;;;;;;;0.73;65.43;100624.66;6047165;28;20045;-68
2022/04/02 00:58:50;;;;;;;3.47;1.35;;;;;;;0.72;65.87;100628.19;6051842;28;20049;-70
2022/04/02 01:01:46;;;;;;;2.37;1.27;;;;;;;0.66;66.33;100627.69;6067007;28;20096;-69
2022/04/02 01:04:41;;;;;;;3.28;1.33;;;;;;;0.63;67.61;100635.66;6051765;28;20029;-70
2022/04/02 01:07:37;;;;;;;2.33;1.20;;;;;;;0.62;67.11;100640.06;6051779;28;20477;-68
2022/04/02 01:10:33;;;;;;;2.20;1.20;;;;;;;0.56;67.35;100638.66;6052884;28;20393;-70
2022/04/02 01:13:28;;;;;;;3.80;1.10;;;;;;;0.51;67.39;100640.66;6051715;28;20281;-69
2022/04/02 01:16:23;;;;;;;2.20;1.00;;;;;;;0.45;68.01;100641.00;6051503;28;20088;-68
2022/04/02 01:19:19;;;;;;;4.30;1.47;;;;;;;0.48;68.79;100647.81;6051109;28;20038;-69
2022/04/02 01:22:14;;;;;;;4.90;1.03;;;;;;;0.42;68.88;100650.75;6050654;28;20041;-70
2022/04/02 01:25:09;;;;;;;3.07;0.93;;;;;;;0.42;69.00;100650.75;6051764;28;20049;-69
2022/04/02 01:28:05;;;;;;;3.60;1.10;;;;;;;0.34;68.55;100653.78;6051219;28;20035;-68
2022/04/02 01:31:02;;;;;;;5.40;1.33;;;;;;;0.39;69.16;100659.59;6050334;28;20033;-68
2022/04/02 01:33:58;;;;;;;2.35;1.33;;;;;;;0.39;69.84;100656.97;6049147;28;20377;-69
2022/04/02 01:36:53;;;;;;;3.07;1.20;;;;;;;0.35;69.62;100659.84;6050051;28;20026;-70
2022/04/02 01:39:48;;;;;;;2.00;1.00;;;;;;;0.29;69.41;100654.94;6051391;28;20269;-69
2022/04/02 01:42:44;;;;;;;4.23;1.10;;;;;;;0.21;70.00;100651.91;6049451;28;20033;-69
2022/04/02 01:45:40;;;;;;;2.85;1.10;;;;;;;0.23;70.13;100666.56;6050848;28;20022;-70
2022/04/02 01:48:35;;;;;;;3.47;1.20;;;;;;;0.20;70.63;100665.84;6051149;28;20042;-68
2022/04/02 01:51:30;;;;;;;4.43;1.23;;;;;;;0.16;70.58;100669.56;6049628;28;20041;-70
2022/04/02 01:54:26;;;;;;;1.70;0.90;;;;;;;0.10;70.70;100669.88;6050626;28;20315;-70
2022/04/02 01:57:21;;;;;;;3.77;1.40;;;;;;;0.10;71.31;100669.88;6050470;28;20180;-68
2022/04/02 02:00:17;;;;;;;2.38;1.20;;;;;;;0.07;71.71;100665.69;6050623;28;20164;-68
2022/04/02 02:03:12;;;;;;;5.03;1.48;;;;;;;0.09;71.72;100679.47;6049928;28;20034;-69
2022/04/02 02:06:08;;;;;;;3.65;1.30;;;;;;;0.00;71.34;100675.56;6050892;28;20037;-69
2022/04/02 02:09:03;;;;;;;2.17;0.90;;;;;;;-0.02;71.84;100682.63;6050072;28;20029;-70
2022/04/02 02:11:59;;;;;;;3.37;1.30;;;;;;;-0.08;71.71;100687.31;6049522;28;20044;-69
2022/04/02 02:14:54;;;;;;;2.97;1.40;;;;;;;-0.10;72.15;100686.56;6049204;28;20037;-69
2022/04/02 02:17:50;;;;;;;3.43;1.20;;;;;;;-0.16;72.18;100686.88;6050203;28;20088;-70
2022/04/02 02:20:45;;;;;;;3.97;1.55;;;;;;;-0.13;72.63;100692.78;6050200;28;20029;-68
2022/04/02 02:23:40;;;;;;;3.67;1.40;;;;;;;-0.27;72.79;100687.44;6048523;28;20092;-69
2022/04/02 02:26:35;;;;;;;2.40;1.10;;;;;;;-0.31;72.89;100677.25;6050039;28;20493;-69
2022/04/02 02:29:31;;;;;;;3.50;1.13;;;;;;;-0.42;73.34;100687.38;6049718;28;20030;-69
2022/04/02 02:32:26;;;;;;;3.47;1.23;;;;;;;-0.44;73.66;100684.84;6048264;28;20580;-68
2022/04/02 02:38:35;;;;;;;2.85;1.38;;;;;;;-0.50;73.67;100698.19;6049075;28;20405;-70
2022/04/02 02:41:31;;;;;;;4.10;1.53;;;;;;;-0.52;73.70;100699.19;6048215;28;20058;-69
2022/04/02 02:44:26;;;;;;;3.63;1.40;;;;;;;-0.56;73.81;100706.28;6048335;28;20134;-69
2022/04/02 02:47:21;;;;;;;5.43;1.30;;;;;;;-0.56;73.46;100698.47;6049008;28;20034;-69
2022/04/02 02:50:17;;;;;;;2.57;1.30;;;;;;;-0.50;73.69;100706.00;6049890;28;20234;-70
2022/04/02 02:53:13;;;;;;;4.40;1.63;;;;;;;-0.51;73.98;100704.28;6048379;28;20038;-70
2022/04/02 02:56:08;;;;;;;5.57;1.40;;;;;;;-0.48;73.42;100704.16;6048474;28;20057;-70
2022/04/02 02:59:04;;;;;;;2.38;1.20;;;;;;;-0.43;73.51;100712.56;6048977;28;20034;-69
2022/04/02 03:02:00;;;;;;;2.42;1.13;;;;;;;-0.37;73.07;100709.66;6048441;28;20593;-69
2022/04/02 03:04:55;;;;;;;2.83;1.57;;;;;;;-0.35;72.88;100713.03;6049124;28;20038;-70
2022/04/02 03:07:51;;;;;;;2.87;1.10;;;;;;;-0.34;72.49;100722.53;6049264;28;20029;-68
2022/04/02 03:10:46;;;;;;;4.47;1.35;;;;;;;-0.37;72.90;100714.03;6048666;28;20053;-70
2022/04/02 03:13:41;;;;;;;3.67;1.50;;;;;;;-0.39;72.98;100716.72;6049213;28;20088;-69
2022/04/02 03:16:38;;;;;;;3.67;1.37;;;;;;;-0.45;72.20;100708.34;6049371;28;20037;-68
2022/04/02 03:19:35;;;;;;;3.45;1.42;;;;;;;-0.45;72.29;100718.78;6049393;28;20392;-70
2022/04/02 03:22:35;;;;;;;3.58;1.50;;;;;;;-0.45;72.89;100722.22;6047391;28;20037;-68
2022/04/02 03:25:31;;;;;;;2.88;1.10;;;;;;;-0.43;72.93;100732.56;6049643;28;20123;-68
2022/04/02 03:28:26;;;;;;;1.95;1.08;;;;;;;-0.49;72.83;100723.28;6048303;28;20038;-70
2022/04/02 03:31:22;;;;;;;3.58;1.38;;;;;;;-0.58;72.92;100723.75;6048199;28;20036;-69
2022/04/02 03:34:17;;;;;;;4.20;1.20;;;;;;;-0.67;73.25;100726.78;6043041;28;20037;-69
2022/04/02 03:37:15;;;;;;;2.20;1.33;;;;;;;-0.75;73.19;100728.94;6043001;28;20040;-68
2022/04/02 03:40:16;;;;;;;5.38;1.73;;;;;;;-0.77;73.28;100743.78;6047848;28;20052;-68
2022/04/02 03:43:11;;;;;;;4.80;1.85;;;;;;;-0.83;73.55;100728.47;6048154;28;20042;-70
2022/04/02 03:49:22;;;;;;;5.00;1.38;;;;;;;-0.86;74.27;100745.06;6046058;28;20034;-70
2022/04/02 03:52:18;;;;;;;5.43;1.45;;;;;;;-0.93;73.81;100737.63;6047192;28;20046;-70
2022/04/02 03:55:14;;;;;;;3.67;1.52;;;;;;;-1.08;74.09;100743.53;6048865;28;20127;-69
2022/04/02 03:58:09;;;;;;;4.05;1.23;;;;;;;-1.11;74.78;100743.72;6048405;28;20128;-68
2022/04/02 04:01:05;;;;;;;3.08;1.75;;;;;;;-1.21;75.08;100754.53;6046849;28;20445;-69
2022/04/02 04:04:00;;;;;;;3.70;1.50;;;;;;;-1.23;75.64;100756.38;6048758;28;20474;-69
2022/04/02 04:06:56;;;;;;;4.13;1.50;;;;;;;-1.29;75.60;100774.84;6048448;28;20076;-69
2022/04/02 04:09:51;;;;;;;3.35;1.30;;;;;;;-1.27;76.27;100770.41;6046860;28;20038;-70
2022/04/02 04:12:47;;;;;;;3.77;1.60;;;;;;;-1.35;76.27;100766.47;6048428;28;20073;-68
2022/04/02 04:15:42;;;;;;;3.67;1.63;;;;;;;-1.38;76.77;100775.25;6048667;28;20030;-68
2022/04/02 04:18:37;;;;;;;5.22;1.80;;;;;;;-1.47;76.71;100783.47;6047779;28;20029;-70
2022/04/02 04:21:34;;;;;;;2.87;1.30;;;;;;;-1.44;77.08;100778.13;6047296;28;20053;-70
2022/04/02 04:24:30;;;;;;;3.30;1.13;;;;;;;-1.46;76.84;100777.38;6047612;28;20408;-68
2022/04/02 04:27:25;;;;;;;3.72;1.40;;;;;;;-1.48;77.47;100791.34;6047192;28;20061;-69
2022/04/02 04:30:21;;;;;;;5.38;1.60;;;;;;;-1.51;77.42;100792.34;6047067;28;20091;-69
2022/04/02 04:33:16;;;;;;;4.57;1.40;;;;;;;-1.46;77.65;100790.38;6051388;28;20068;-69
2022/04/02 04:36:12;;;;;;;5.20;1.50;;;;;;;-1.53;77.33;100801.97;6056056;28;20037;-69
2022/04/02 04:39:07;;;;;;;5.10;1.55;;;;;;;-1.45;77.50;100797.25;6059397;28;20101;-70
2022/04/02 04:42:02;;;;;;;3.83;1.57;;;;;;;-1.41;77.45;100792.75;6051194;28;20416;-70
2022/04/02 04:44:58;;;;;;;5.78;1.63;;;;;;;-1.38;77.50;100796.06;6053013;28;20108;-69
2022/04/02 04:47:53;;;;;;;4.30;1.70;;;;;;;-1.40;77.29;100810.03;6055966;28;20104;-69
2022/04/02 04:50:48;;;;;;;4.00;1.08;;;;;;;-1.37;77.06;100810.75;6048457;28;20040;-71
2022/04/02 04:53:44;;;;;;;4.40;1.60;;;;;;;-1.32;76.76;100816.59;6053114;28;20462;-69
2022/04/02 04:56:39;;;;;;;3.93;1.67;;;;;;;-1.26;77.28;100818.09;6058188;28;20061;-69
2022/04/02 04:59:34;;;;;;;6.30;2.07;;;;;;;-1.23;77.19;100816.19;6052099;28;20045;-69
2022/04/02 05:02:30;;;;;;;5.70;1.83;;;;;;;-1.20;76.76;100816.03;6052198;28;20253;-69
2022/04/02 05:05:25;;;;;;;6.90;1.77;;;;;;;-1.21;76.62;100822.16;6052187;28;20087;-70
2022/04/02 05:08:21;;;;;;;3.38;1.30;;;;;;;-1.07;76.67;100826.75;6051870;28;20265;-70
2022/04/02 05:11:17;;;;;;;4.43;1.40;;;;;;;-0.92;76.02;100823.41;6052540;28;20122;-69
2022/04/02 05:14:13;;;;;;;4.13;1.33;;;;;;;-0.89;75.42;100838.91;6052173;28;20029;-70
2022/04/02 05:17:09;;;;;;;4.10;1.20;;;;;;;-0.78;75.25;100825.38;6051587;28;20033;-70
2022/04/02 05:20:05;;;;;;;4.13;1.60;;;;;;;-0.73;74.78;100831.22;6050480;28;20493;-70
2022/04/02 05:23:00;;;;;;;4.57;1.58;;;;;;;-0.68;74.74;100839.69;6051388;28;20072;-70
2022/04/02 05:25:56;;;;;;;6.33;1.80;;;;;;;-0.66;73.96;100823.06;6052795;28;20544;-69
2022/04/02 05:28:51;;;;;;;4.73;1.50;;;;;;;-0.62;73.90;100829.81;6053597;28;20363;-69
2022/04/02 05:31:47;;;;;;;4.80;1.27;;;;;;;-0.43;74.05;100844.53;6052132;28;20273;-69
2022/04/02 05:34:42;;;;;;;4.05;1.63;;;;;;;-0.38;73.69;100834.78;6052799;28;20030;-69
2022/04/02 05:37:44;;;;;;;4.95;1.55;;;;;;;-0.40;73.24;100837.44;6050914;28;20393;-69
2022/04/02 05:40:40;;;;;;;3.95;1.42;;;;;;;-0.23;73.48;100844.44;6051502;28;20473;-70
2022/04/02 05:43:35;;;;;;;3.03;1.53;;;;;;;-0.19;72.77;100848.59;6050927;28;20042;-69
2022/04/02 05:46:30;;;;;;;8.57;1.70;;;;;;;-0.19;72.19;100846.81;6052077;28;20080;-69
2022/04/02 05:49:26;;;;;;;4.47;1.63;;;;;;;-0.15;72.43;100860.53;6052448;28;20045;-69
2022/04/02 05:52:21;;;;;;;3.40;1.30;;;;;;;-0.06;71.89;100853.13;6046608;28;20029;-70
2022/04/02 05:55:17;;;;;;;4.93;1.40;;;;;;;-0.03;71.49;100859.94;6052218;28;20269;-71
2022/04/02 05:58:12;;;;;;;7.07;1.55;;;;;;;0.00;71.84;100863.22;6051508;28;20044;-70
2022/04/02 06:01:08;;;;;;;3.67;1.80;;;;;;;0.10;71.49;100857.56;6034589;28;20053;-70
2022/04/02 06:04:03;;;;;;;4.10;1.23;;;;;;;0.20;70.90;100864.84;6051857;28;20042;-69
2022/04/02 06:06:59;;;;;;;3.97;1.20;;;;;;;0.23;71.44;100866.44;6052031;28;20033;-70
2022/04/02 06:09:54;;;;;;;8.53;1.60;;;;;;;0.12;70.17;100867.00;6053772;28;20029;-70
2022/04/02 06:12:51;;;;;;;4.13;1.50;;;;;;;0.04;71.02;100878.72;6050457;28;20045;-70
2022/04/02 06:15:46;;;;;;;3.13;1.60;;;;;;;0.08;70.49;100882.88;6050267;28;20049;-70
2022/04/02 06:18:43;;;;;;;2.20;1.03;;;;;;;0.09;70.88;100881.94;6051339;28;20088;-69
2022/04/02 06:21:38;;;;;;;8.80;1.58;;;;;;;0.17;70.76;100891.06;6051104;28;20042;-68
2022/04/02 06:24:36;;;;;;;4.97;1.80;;;;;;;0.20;71.09;100900.50;6051104;28;20045;-70
2022/04/02 06:27:31;;;;;;;6.50;1.60;;;;;;;0.34;70.96;100898.91;6050781;28;20041;-69
2022/04/02 06:30:27;;;;;;;5.60;2.10;;;;;;;0.41;70.40;100902.03;6050808;28;20044;-69
2022/04/02 06:33:22;;;;;;;6.67;1.23;;;;;;;0.41;70.14;100899.41;6050797;28;20021;-69
2022/04/02 06:36:19;;;;;;;3.45;1.25;;;;;;;0.43;69.80;100910.63;6040591;28;20058;-69
2022/04/02 06:39:15;;;;;;;2.80;1.23;;;;;;;0.46;69.99;100911.31;6049031;28;20603;-70
2022/04/02 06:42:10;;;;;;;4.40;1.30;;;;;;;0.50;69.32;100909.41;6049635;28;20041;-70
2022/04/02 06:45:07;;;;;;;5.85;1.48;;;;;;;0.51;68.89;100914.56;6050781;28;20073;-69
2022/04/02 06:48:04;;;;;;;2.67;1.35;;;;;;;0.58;69.39;100917.69;6050317;28;20034;-69
2022/04/02 06:51:00;;;;;;;4.88;1.48;;;;;;;0.71;69.32;100916.13;6050039;28;20084;-70
2022/04/02 06:53:56;;;;;;;4.65;1.70;;;;;;;0.77;69.15;100923.66;6049945;28;20033;-69
2022/04/02 06:56:51;;;;;;;3.83;1.60;;;;;;;0.72;68.71;100910.00;6049902;28;20060;-70
2022/04/02 06:59:47;;;;;;;7.03;1.90;;;;;;;0.78;68.17;100927.94;6050594;28;20473;-69
2022/04/02 07:02:42;;;;;;;3.47;1.45;;;;;;;0.99;68.91;100919.00;6048622;28;20092;-69
2022/04/02 07:05:37;;;;;;;4.10;1.70;;;;;;;0.96;67.59;100923.53;6050981;28;20034;-68
2022/04/02 07:08:35;;;;;;;4.07;1.20;;;;;;;0.89;67.96;100920.41;6050166;28;20037;-69
2022/04/02 07:11:30;;;;;;;4.05;1.50;;;;;;;1.02;67.61;100926.69;6049300;28;20026;-68
2022/04/02 07:14:26;;;;;;;4.47;1.40;;;;;;;1.15;67.47;100927.72;6053658;28;20568;-68
2022/04/02 07:17:21;;;;;;;2.67;1.43;;;;;;;1.22;67.22;100932.63;6050189;28;20042;-69
2022/04/02 07:20:19;;;;;;;4.43;1.83;;;;;;;1.31;66.41;100926.88;6049758;28;20041;-68
2022/04/02 07:23:15;;;;;;;3.03;1.50;;;;;;;1.26;66.07;100928.91;6048571;28;20057;-69
2022/04/02 07:26:11;;;;;;;4.22;1.42;;;;;;;1.42;66.60;100941.06;6048982;28;20484;-69
2022/04/02 07:29:08;;;;;;;3.00;1.42;;;;;;;1.38;64.95;100938.72;6049777;28;20475;-69
2022/04/02 07:32:07;;;;;;;5.30;1.45;;;;;;;1.41;65.03;100951.59;6048466;28;20038;-69
2022/04/02 07:35:02;;;;;;;4.22;1.60;;;;;;;1.39;65.24;100953.44;6049263;28;20035;-67
2022/04/02 07:38:14;;;;;;;4.60;1.60;;;;;;;1.49;65.50;100958.09;6049254;28;20394;-69
2022/04/02 07:41:21;;;;;;;3.97;1.38;;;;;;;1.50;65.03;100954.56;6045702;28;20168;-69
2022/04/02 07:44:26;;;;;;;2.45;1.27;;;;;;;1.55;64.87;100952.53;6047608;28;20034;-69
2022/04/02 07:47:24;;;;;;;7.22;1.63;;;;;;;1.59;64.72;100961.91;6041830;28;20507;-68
2022/04/02 07:50:21;;;;;;;5.45;1.90;;;;;;;1.66;65.20;100957.16;6047764;28;20042;-69
2022/04/02 07:53:21;;;;;;;3.63;1.15;;;;;;;1.83;64.66;100959.72;6047660;28;20033;-68
2022/04/02 07:56:36;;;;;;;3.08;1.50;;;;;;;1.80;63.71;100957.25;6049573;28;20120;-69
2022/04/02 07:59:34;;;;;;;3.92;1.70;;;;;;;1.93;64.25;100960.06;6046841;28;20057;-70
2022/04/02 08:02:37;;;;;;;3.53;1.30;;;;;;;1.98;64.39;100971.94;6046334;28;20469;-70
2022/04/02 08:05:33;;;;;;;4.63;1.63;;;;;;;2.08;63.49;100969.66;6050256;28;20032;-69
2022/04/02 08:08:29;;;;;;;4.10;1.53;;;;;;;2.25;63.05;100972.16;6053295;28;20037;-70
2022/04/02 08:11:25;;;;;;;3.72;1.45;;;;;;;2.24;62.55;100976.56;6052356;28;20037;-69
2022/04/02 08:14:23;;;;;;;5.55;1.58;;;;;;;2.28;62.28;100972.81;6054095;28;20034;-69
2022/04/02 08:17:20;;;;;;;4.03;1.52;;;;;;;2.10;63.39;100973.88;6054389;28;20029;-69
2022/04/02 08:20:16;;;;;;;5.25;1.20;;;;;;;2.21;62.29;100973.25;6053310;28;20037;-69
2022/04/02 08:23:11;;;;;;;2.80;1.30;;;;;;;2.18;62.31;100976.03;6053318;28;20041;-68
2022/04/02 08:26:17;;;;;;;7.00;1.80;;;;;;;2.48;62.80;100986.53;6053546;28;20037;-69
2022/04/02 08:29:43;;;;;;;5.65;1.80;;;;;;;2.60;62.42;100978.00;6050207;28;20091;-68
2022/04/02 08:33:09;;;;;;;3.25;1.63;;;;;;;2.51;61.58;100994.22;6038785;28;20038;-69
2022/04/02 08:36:26;;;;;;;3.30;1.48;;;;;;;2.69;62.13;100991.38;6050039;28;20113;-68
2022/04/02 08:39:48;;;;;;;2.08;1.45;;;;;;;2.83;60.84;100994.03;6052569;28;20037;-70
2022/04/02 08:42:58;;;;;;;4.88;1.98;;;;;;;2.68;60.53;100994.09;6026926;28;20727;-69
2022/04/02 08:45:56;;;;;;;4.75;1.70;;;;;;;2.79;59.96;100986.47;6053824;28;20042;-69
2022/04/02 08:48:58;;;;;;;3.47;1.55;;;;;;;3.00;59.73;101004.38;6046049;28;20034;-68
2022/04/02 08:52:19;;;;;;;6.35;2.00;;;;;;;3.13;58.83;101003.63;6057018;28;20073;-69
2022/04/02 08:55:17;;;;;;;4.35;1.65;;;;;;;3.32;58.90;100997.19;6049380;28;20473;-70
2022/04/02 08:58:23;;;;;;;3.22;1.52;;;;;;;3.76;58.02;100994.44;6052995;28;20476;-69
2022/04/02 09:01:23;;;;;;;3.55;1.35;;;;;;;3.69;57.81;100995.78;6052254;28;20042;-69
2022/04/02 09:04:39;;;;;;;3.95;1.63;;;;;;;3.67;56.91;101004.69;6053179;28;20117;-70
2022/04/02 09:07:49;;;;;;;5.30;1.77;;;;;;;3.72;56.60;101005.25;6045064;28;20041;-70
2022/04/02 09:10:59;;;;;;;4.35;1.63;;;;;;;3.96;56.39;100996.69;6051384;28;20038;-70
2022/04/02 09:14:19;;;;;;;3.38;1.40;;;;;;;3.86;56.35;100999.97;6051577;28;20133;-69
2022/04/02 09:17:37;;;;;;;5.63;2.17;;;;;;;4.17;55.49;100997.94;6049747;28;20124;-70
2022/04/02 09:20:46;;;;;;;5.07;2.20;;;;;;;4.34;54.37;100988.97;6051466;28;20034;-69
2022/04/02 09:23:50;;;;;;;7.70;2.90;;;;;;;4.26;54.03;101004.38;6050381;28;20121;-68
2022/04/02 09:26:51;;;;;;;8.15;3.95;;;;;;;3.93;53.45;100994.25;6050248;28;20038;-69
2022/04/02 09:30:05;;;;;;;2.05;1.23;;;;;;;4.01;52.52;101005.09;6051954;28;20058;-68
2022/04/02 09:33:00;;;;;;;;;;;;;;;4.11;54.06;100994.84;6052055;28;20152;-69
2022/04/02 09:36:20;;;;;;;4.67;2.23;;;;;;;4.19;52.99;101001.28;6052266;28;20369;-70
2022/04/02 09:39:38;;;;;;;4.43;1.92;;;;;;;3.98;52.55;101001.81;6051576;28;20036;-68
2022/04/02 09:42:47;;;;;;;4.05;1.10;;;;;;;3.85;52.98;101003.53;6051240;28;20038;-70
2022/04/02 09:46:08;;;;;;;4.50;1.40;;;;;;;4.08;50.40;100995.03;6067119;28;20030;-70
2022/04/02 09:49:27;;;;;;;3.58;1.30;;;;;;;4.18;50.79;100983.03;6051859;28;20034;-68
2022/04/02 09:52:23;;;;;;;4.03;1.75;;;;;;;4.35;49.45;100980.13;6064701;28;20092;-70
2022/04/02 09:55:56;;;;;;;2.97;1.40;;;;;;;4.54;48.38;100985.88;6050333;28;20062;-70
2022/04/02 09:59:02;;;;;;;2.70;1.27;;;;;;;4.20;49.61;100992.50;6010682;28;20050;-69
2022/04/02 10:02:01;;;;;;;3.47;1.30;;;;;;;4.11;49.07;100981.72;6049987;28;20096;-69
2022/04/02 10:05:04;;;;;;;2.17;1.20;;;;;;;4.22;49.20;100995.00;6051531;28;20030;-69
2022/04/02 10:08:12;;;;;;;3.80;1.48;;;;;;;4.07;49.13;101003.88;6050967;28;20037;-69
2022/04/02 10:11:11;;;;;;;3.55;1.60;;;;;;;4.11;47.04;100994.84;6049926;28;20488;-69
2022/04/02 10:14:07;;;;;;;1.50;1.05;;;;;;;4.09;47.51;100988.84;6050371;28;20382;-69
2022/04/02 10:17:04;;;;;;;3.75;1.50;;;;;;;4.06;48.40;100996.91;6050443;28;20392;-68
2022/04/02 10:20:00;;;;;;;2.28;1.10;;;;;;;4.25;48.50;100989.56;6048418;28;20109;-70
2022/04/02 10:23:14;;;;;;;6.60;4.70;;;;;;;4.20;49.26;100987.25;6049238;28;20030;-69
2022/04/02 10:26:17;;;;;;;4.03;1.55;;;;;;;4.65;47.56;100991.25;6049826;28;20432;-68
2022/04/02 10:29:13;;;;;;;7.13;2.50;;;;;;;5.22;47.09;100980.38;6047986;28;20469;-67
2022/04/02 10:32:11;;;;;;;8.23;3.55;;;;;;;5.41;47.96;100983.41;6049484;28;20108;-68
2022/04/02 10:35:11;;;;;;;3.05;1.40;;;;;;;5.49;47.93;100977.66;6048829;28;20054;-69
2022/04/02 10:38:12;;;;;;;3.08;1.50;;;;;;;5.47;48.34;100976.91;6049520;28;20038;-70
2022/04/02 10:41:10;;;;;;;4.13;1.52;;;;;;;5.54;48.94;100968.50;6048688;28;20026;-69
2022/04/02 10:44:12;;;;;;;4.30;1.45;;;;;;;5.68;47.45;100981.50;6050239;28;20046;-69
2022/04/02 10:47:12;;;;;;;2.22;1.13;;;;;;;5.59;47.41;100982.16;6049005;28;20181;-69
2022/04/02 10:50:08;;;;;;;4.97;1.50;;;;;;;5.37;47.42;100989.84;6048457;28;20022;-68
2022/04/02 10:53:04;;;;;;;4.40;1.27;;;;;;;5.06;47.85;100985.00;6049601;28;20068;-68
2022/04/02 10:56:03;;;;;;;1.88;0.90;;;;;;;4.82;48.08;100984.88;6050345;28;20088;-70
2022/04/02 10:58:59;;;;;;;3.35;1.55;;;;;;;4.72;48.94;101000.44;6065049;28;20398;-68
2022/04/02 11:01:58;;;;;;;4.38;1.65;;;;;;;4.67;48.54;100989.34;6049237;28;20521;-69
2022/04/02 11:05:04;;;;;;;5.40;1.90;;;;;;;4.57;49.87;100998.78;6050633;28;20030;-68
2022/04/02 11:08:07;;;;;;;2.90;1.70;;;;;;;4.41;50.79;101000.75;6049760;28;20473;-68
2022/04/02 11:11:18;;;;;;;4.28;1.73;;;;;;;4.47;49.40;100997.72;6048605;28;20030;-69
2022/04/02 11:14:20;;;;;;;2.95;1.42;;;;;;;4.35;48.97;101006.38;6035924;28;20046;-68
2022/04/02 11:17:32;;;;;;;2.88;1.65;;;;;;;4.38;48.66;100998.31;6049487;28;20084;-69
2022/04/02 11:20:30;;;;;;;7.03;2.33;;;;;;;4.69;48.68;101000.63;6048546;28;20041;-68
2022/04/02 11:24:00;;;;;;;4.85;1.55;;;;;;;4.66;47.78;100998.19;6049889;28;20462;-68
2022/04/02 11:26:56;;;;;;;3.58;1.30;;;;;;;4.78;47.89;100997.38;5999313;28;20115;-69
2022/04/02 11:29:51;;;;;;;4.00;1.98;;;;;;;5.02;47.40;100999.31;6035827;28;20120;-69
2022/04/02 11:32:48;;;;;;;3.75;1.52;;;;;;;5.03;47.72;100996.56;6049096;28;20025;-68
2022/04/02 11:35:51;;;;;;;5.70;2.03;;;;;;;5.28;46.67;100995.75;6048369;28;20029;-69
2022/04/02 11:38:52;;;;;;;6.05;2.40;;;;;;;5.46;46.30;100983.97;6049284;28;20037;-68
2022/04/02 11:41:52;;;;;;;6.93;4.22;;;;;;;5.67;46.38;101002.66;6046839;28;20080;-68
2022/04/02 11:44:52;;;;;;;5.05;3.00;;;;;;;5.77;45.75;100993.16;6064976;28;20547;-69
2022/04/02 11:47:50;;;;;;;10.27;5.88;;;;;;;5.71;44.64;100997.06;6049048;28;20444;-68
2022/04/02 11:50:45;;;;;;;4.55;2.55;;;;;;;5.75;46.14;101002.97;6049054;28;20065;-69
2022/04/02 11:53:41;;;;;;;4.22;2.65;;;;;;;5.53;46.52;100995.72;6048948;28;20450;-69
2022/04/02 11:56:43;;;;;;;3.05;1.48;;;;;;;5.20;46.53;101012.03;6048961;28;20141;-68
2022/04/02 11:59:51;;;;;;;4.88;2.05;;;;;;;5.08;46.51;101004.16;6049396;28;20076;-68
2022/04/02 12:02:47;;;;;;;2.90;1.67;;;;;;;5.07;47.26;101000.69;6047993;28;20045;-68
2022/04/02 12:05:42;;;;;;;2.75;1.52;;;;;;;5.19;46.78;100996.38;6064541;28;20081;-68
2022/04/02 12:08:41;;;;;;;4.40;2.25;;;;;;;5.53;45.54;100990.47;6048280;28;20482;-68
2022/04/02 12:11:36;;;;;;;3.13;2.00;;;;;;;5.49;47.56;100994.25;6048158;28;20034;-68
2022/04/02 12:14:41;;;;;;;3.75;1.88;;;;;;;5.46;46.22;100997.13;6047600;28;20049;-68
2022/04/02 12:17:38;;;;;;;4.43;2.65;;;;;;;5.22;46.17;101004.88;6048450;28;20109;-70
2022/04/02 12:20:39;;;;;;;5.95;2.53;;;;;;;5.29;47.04;101006.16;6047078;28;20042;-69
2022/04/02 12:23:36;;;;;;;3.05;1.50;;;;;;;5.61;46.77;101003.09;6048479;28;20029;-68
2022/04/02 12:26:32;;;;;;;3.30;1.58;;;;;;;5.71;46.40;101007.59;6048491;28;20049;-69
2022/04/02 12:29:27;;;;;;;4.40;1.73;;;;;;;5.56;46.36;101002.56;6047485;28;20481;-69
2022/04/02 12:32:40;;;;;;;3.05;1.58;;;;;;;5.80;46.31;101009.59;6046284;28;20026;-69
2022/04/02 12:35:36;;;;;;;3.90;1.55;;;;;;;6.40;44.77;100995.63;6043105;28;20034;-70
2022/04/02 12:38:33;;;;;;;2.55;1.40;;;;;;;6.23;43.72;100990.72;6048004;28;20029;-69
2022/04/02 12:41:29;;;;;;;3.58;1.50;;;;;;;5.94;43.70;101004.22;6048195;28;20147;-68
2022/04/02 12:44:24;;;;;;;3.33;1.38;;;;;;;5.59;44.64;100995.31;6048221;28;20064;-69
2022/04/02 12:47:20;;;;;;;2.77;1.30;;;;;;;5.56;44.16;100990.25;6047973;28;20032;-69
2022/04/02 12:50:15;;;;;;;4.18;1.60;;;;;;;5.39;45.14;100999.31;6047744;28;20279;-68
2022/04/02 12:53:11;;;;;;;4.75;2.00;;;;;;;5.61;44.62;100988.16;6050078;28;20057;-68
2022/04/02 12:56:12;;;;;;;3.53;1.50;;;;;;;6.02;43.97;100987.03;6053118;28;20065;-69
2022/04/02 12:59:18;;;;;;;2.53;1.73;;;;;;;6.55;42.67;100994.47;6051114;28;20029;-69
2022/04/02 13:02:19;;;;;;;3.53;1.63;;;;;;;6.98;39.89;100992.97;6051750;28;20037;-69
2022/04/02 13:05:16;;;;;;;2.78;1.60;;;;;;;6.63;41.78;101002.69;6052779;28;20381;-68
2022/04/02 13:08:26;;;;;;;3.00;1.38;;;;;;;6.24;41.79;100997.69;6052099;28;20038;-68
2022/04/02 13:11:45;;;;;;;3.70;1.50;;;;;;;5.89;41.54;100998.44;6052004;28;20068;-69
2022/04/02 13:14:45;;;;;;;4.38;2.10;;;;;;;6.14;43.64;101007.22;6051866;28;20041;-68
2022/04/02 13:20:28;;;;;;;4.20;1.70;;;;;;;6.12;42.96;100996.78;6051704;28;20125;-68
2022/04/02 13:21:00;;;;;;;3.95;1.50;;;;;;;6.21;41.76;100997.91;6051767;28;20049;-69
2022/04/02 13:24:10;;;;;;;2.80;1.30;;;;;;;6.42;41.18;101007.72;6051755;28;20125;-69
2022/04/02 13:27:10;;;;;;;3.65;1.30;;;;;;;6.52;41.56;101007.91;6051994;28;20113;-69
2022/04/02 13:30:13;;;;;;;2.72;1.10;;;;;;;6.61;40.25;101007.19;6050524;28;20634;-69
2022/04/02 13:33:47;;;;;;;3.47;1.50;;;;;;;6.26;40.30;101001.03;6052436;28;20038;-69
2022/04/02 13:37:13;;;;;;;3.95;1.33;;;;;;;6.16;40.36;101010.56;6066900;28;20121;-69
2022/04/02 13:40:13;;;;;;;3.10;1.40;;;;;;;5.99;41.37;101007.34;6066396;28;20044;-69
2022/04/02 13:43:09;;;;;;;2.85;1.30;;;;;;;5.86;42.52;101009.19;6051269;28;20041;-68
2022/04/02 13:46:06;;;;;;;3.75;1.35;;;;;;;5.92;42.01;101003.47;6051298;28;20034;-68
2022/04/02 13:49:07;;;;;;;4.03;1.65;;;;;;;6.37;41.93;101001.09;6050933;28;20034;-69
2022/04/02 13:52:02;;;;;;;3.30;1.50;;;;;;;6.21;42.78;101006.66;6047964;28;20522;-69
2022/04/02 13:55:10;;;;;;;3.13;1.42;;;;;;;6.01;42.19;101001.97;6050442;28;20034;-68
2022/04/02 13:58:08;;;;;;;3.95;1.63;;;;;;;6.09;41.29;101004.06;6047175;28;20405;-67
2022/04/02 14:01:10;;;;;;;3.55;1.73;;;;;;;6.64;39.85;100988.53;6050785;28;20046;-68
2022/04/02 14:04:11;;;;;;;4.05;2.10;;;;;;;6.54;39.15;101000.72;6050614;28;20037;-68
2022/04/02 14:07:07;;;;;;;3.55;1.75;;;;;;;6.50;39.17;101007.16;6051147;28;20061;-69
2022/04/02 14:10:12;;;;;;;4.10;1.83;;;;;;;6.46;39.49;100988.13;6050062;28;20095;-68